Atkinson, NE (68713)

9:34 PM CDT on July 24, 2016 (GMT -0500)
The O'Neill Municipal-Baker | | Change Station

Elev 2031 ft 42.47 °N, 98.69 °W | Updated 19 minutes ago

Mostly Cloudy
Mostly Cloudy
76 °F
Feels Like 76 °F
N
4
Wind Variable Wind from SE

Today
High -- | Low -- °F
--% Chance of Precip.
Yesterday
High -- | Low -- °F
Precip. -- in
Pressure 30.11 in
Visibility 10.0 miles
Clouds Mostly Cloudy 11000 ft
Dew Point 60 °F
Humidity 58%
Rainfall 0.00 in
Snow Depth Not available.
6:20 AM 9:03 PM
Waning Gibbous, 71% visible
METAR KONL 250215Z AUTO 13003KT 10SM BKN110 25/16 A3011 RMK AO2 T02450157
Pressure 30.11 in
Visibility 10.0 miles
Clouds Mostly Cloudy 11000 ft
Dew Point 60 °F
Humidity 58%
Rainfall 0.00 in
Snow Depth Not available.
6:20 AM 9:03 PM
Waning Gibbous, 71% visible
METAR KONL 250215Z AUTO 13003KT 10SM BKN110 25/16 A3011 RMK AO2 T02450157

10-Day Weather Forecast

Almanac

Astronomy

Jul. 24, 2016 Rise Set
Actual Time
Civil Twilight
Nautical Twilight
Astronomical Twilight
Moon
Length of Visible Light
Length of Day
Tomorrow will be .
, % of the Moon is Illuminated

Today's Extremes

State Highs State Lows

Community

WunderPhotos

Upload Photos

1,927,243 photos uploaded!

WunderBlog® & News

Nearby

Air Quality

  Air Quality AQ Index Pollutant
Not available.

Snow Depth

Station Depth Elevation

Earthquake Activity

City Distance Mag. Time & Date
Minimum magnitude displayed is 2.5.

Coastal Water Temperatures

Place Temperature

Stations

Nearby Weather Stations

Station Location Temp. Windchill Dew Point Humidity Wind Precip. Elev Updated Type
                   

Watches & Warnings

There are currently no watches in effect.